Time;durP1;ratioP1;P1;durP2;ratioP2;P2;SDS_P1;SDS_P2;PMS_P1;PMS_P2;Temp;Humidity;BMP_temperature;BMP_pressure;BME280_temperature;BME280_humidity;BME280_pressure;Samples;Min_cycle;Max_cycle;Signal;HPM_P1;HPM_P2
2022/12/08 00:01:40;;;;;;;40.05;19.75;;;;;;;7.12;99.89;100074.84;5089273;28;20484;-29
2022/12/08 00:04:05;;;;;;;41.85;19.77;;;;;;;7.00;100.00;100087.03;5089540;28;20024;-30
2022/12/08 00:09:23;;;;;;;39.75;19.60;;;;;;;7.14;100.00;100103.84;5089787;28;20042;-29
2022/12/08 00:11:58;;;;;;;41.00;19.63;;;;;;;7.26;99.64;100096.97;5071199;28;20030;-30
2022/12/08 00:14:45;;;;;;;43.78;21.52;;;;;;;7.26;99.56;100106.75;5071446;28;20028;-29
2022/12/08 00:17:13;;;;;;;38.00;19.90;;;;;;;7.42;98.44;100109.91;5070772;28;20055;-29
2022/12/08 00:19:40;;;;;;;40.08;21.40;;;;;;;7.27;99.24;100097.78;5071001;28;20089;-31
2022/12/08 00:22:07;;;;;;;41.60;21.00;;;;;;;7.27;98.56;100098.59;5071015;28;20028;-30
2022/12/08 00:24:35;;;;;;;41.58;20.85;;;;;;;7.23;99.27;100095.53;5089311;28;20047;-33
2022/12/08 00:27:01;;;;;;;37.13;19.35;;;;;;;7.40;97.86;100103.97;5089255;28;20035;-28
2022/12/08 00:29:27;;;;;;;42.30;20.83;;;;;;;7.22;98.28;100085.91;5070947;28;20052;-33
2022/12/08 00:31:52;;;;;;;41.40;20.35;;;;;;;7.16;97.98;100080.59;5087541;28;20125;-29
2022/12/08 00:34:18;;;;;;;39.72;20.08;;;;;;;7.23;97.74;100107.94;5089027;28;20039;-29
2022/12/08 00:36:43;;;;;;;44.17;20.67;;;;;;;7.02;99.01;100080.50;5089039;28;20032;-31
2022/12/08 00:39:11;;;;;;;41.08;20.85;;;;;;;7.27;98.00;100100.44;5089008;28;20016;-28
2022/12/08 00:44:20;;;;;;;43.75;21.58;;;;;;;7.31;97.74;100105.13;5089123;28;20093;-27
2022/12/08 00:46:46;;;;;;;37.97;19.85;;;;;;;7.11;99.36;100099.75;5088987;28;20114;-28
2022/12/08 00:49:13;;;;;;;38.17;20.40;;;;;;;7.26;98.76;100096.16;5088752;28;20024;-28
2022/12/08 00:51:39;;;;;;;40.20;20.30;;;;;;;7.40;97.38;100103.97;5070565;28;20024;-30
2022/12/08 00:54:05;;;;;;;39.65;20.35;;;;;;;7.47;97.44;100104.00;5089020;28;20031;-29
2022/12/08 00:56:31;;;;;;;40.58;20.92;;;;;;;7.38;97.91;100081.31;5070179;28;20055;-29
2022/12/08 00:58:56;;;;;;;41.97;22.45;;;;;;;7.50;96.60;100093.00;5088976;28;20024;-28
2022/12/08 01:01:22;;;;;;;38.97;20.95;;;;;;;7.32;97.72;100100.69;5088993;28;20565;-28
2022/12/08 01:03:47;;;;;;;39.35;20.80;;;;;;;7.43;98.26;100102.75;5088304;28;20415;-28
2022/12/08 01:06:13;;;;;;;39.58;19.88;;;;;;;7.35;98.60;100100.25;5088666;28;20036;-34
2022/12/08 01:08:39;;;;;;;40.42;19.67;;;;;;;7.40;98.14;100096.00;5088619;28;20027;-28
2022/12/08 01:11:16;;;;;;;41.00;19.70;;;;;;;7.55;97.41;100106.47;5070071;28;20039;-30
2022/12/08 01:13:44;;;;;;;37.22;20.38;;;;;;;7.39;97.49;100098.84;5088767;28;20032;-29
2022/12/08 01:16:18;;;;;;;36.90;19.90;;;;;;;7.33;97.81;100070.47;5069988;28;20054;-32
2022/12/08 01:18:43;;;;;;;39.75;20.33;;;;;;;7.44;97.85;100088.50;5088242;28;20124;-29
2022/12/08 01:21:09;;;;;;;38.67;20.48;;;;;;;7.50;98.02;100087.69;5088087;28;20114;-29
2022/12/08 01:23:34;;;;;;;42.83;20.88;;;;;;;7.34;98.37;100091.50;5069886;28;20476;-30
2022/12/08 01:26:05;;;;;;;39.88;19.08;;;;;;;7.17;99.02;100077.75;5087965;28;20412;-31
2022/12/08 01:28:31;;;;;;;38.83;20.60;;;;;;;7.47;98.36;100093.38;5069811;28;20043;-31
2022/12/08 01:30:57;;;;;;;43.97;19.90;;;;;;;7.43;98.03;100087.66;5069769;28;20039;-28
2022/12/08 01:33:23;;;;;;;36.20;19.45;;;;;;;7.27;98.54;100087.97;5069711;28;20154;-32
2022/12/08 01:35:48;;;;;;;40.22;20.45;;;;;;;7.41;97.94;100088.88;5087500;28;20107;-32
2022/12/08 01:38:14;;;;;;;40.70;19.80;;;;;;;7.50;97.35;100086.84;5087797;28;20032;-31
2022/12/08 01:40:39;;;;;;;46.85;20.95;;;;;;;7.59;96.79;100091.00;5069908;28;20028;-28
2022/12/08 01:43:04;;;;;;;40.42;19.50;;;;;;;7.55;96.91;100098.53;5069357;28;20028;-29
2022/12/08 01:45:31;;;;;;;42.67;21.45;;;;;;;7.41;96.65;100094.16;5069620;28;20080;-32
2022/12/08 01:48:04;;;;;;;38.90;19.77;;;;;;;7.32;97.47;100080.25;5087568;28;20044;-28
2022/12/08 01:50:31;;;;;;;34.92;18.83;;;;;;;7.31;98.25;100099.03;5087789;28;20034;-31
2022/12/08 01:53:13;;;;;;;39.40;19.20;;;;;;;7.22;98.60;100101.03;5087806;28;20044;-28
2022/12/08 01:55:46;;;;;;;34.33;18.00;;;;;;;7.32;98.33;100100.69;5069523;28;20024;-28
2022/12/08 01:58:23;;;;;;;35.47;18.65;;;;;;;7.42;97.84;100101.94;5069314;28;20527;-28
2022/12/08 02:00:50;;;;;;;37.30;17.90;;;;;;;7.47;96.98;100088.06;5069351;28;20035;-28
2022/12/08 02:03:23;;;;;;;40.20;19.73;;;;;;;7.27;97.31;100079.22;5069014;28;20032;-31
2022/12/08 02:05:50;;;;;;;40.08;19.00;;;;;;;7.35;97.38;100090.47;5069367;28;20028;-28
2022/12/08 02:08:16;;;;;;;35.42;18.25;;;;;;;7.55;96.89;100090.56;5087563;28;20050;-27
2022/12/08 02:10:42;;;;;;;38.75;18.65;;;;;;;7.43;97.11;100090.28;5069469;28;20024;-28
2022/12/08 02:13:11;;;;;;;37.17;19.48;;;;;;;7.47;97.03;100093.38;5087329;28;20399;-33
2022/12/08 02:16:08;;;;;;;41.50;19.50;;;;;;;7.62;96.08;100093.22;5087441;28;20031;-30
2022/12/08 02:18:57;;;;;;;33.08;17.48;;;;;;;7.61;96.89;100095.06;5065502;28;20520;-29
2022/12/08 02:22:03;;;;;;;36.95;18.50;;;;;;;7.43;96.91;100089.50;5067084;28;20028;-34
2022/12/08 02:24:57;;;;;;;33.30;17.48;;;;;;;7.50;97.75;100092.16;4994814;28;20136;-28
2022/12/08 02:27:32;;;;;;;36.08;18.05;;;;;;;7.70;95.90;100094.91;5067092;28;20058;-34
2022/12/08 02:30:09;;;;;;;34.97;18.65;;;;;;;7.68;96.07;100102.25;5066775;28;20027;-28
2022/12/08 02:33:01;;;;;;;36.03;18.80;;;;;;;7.67;96.10;100084.69;5065521;28;20507;-31
2022/12/08 02:35:55;;;;;;;37.15;17.85;;;;;;;7.65;95.30;100080.38;5065859;28;20705;-31
2022/12/08 02:38:44;;;;;;;35.42;17.08;;;;;;;7.36;97.00;100091.31;5030476;28;20037;-30
2022/12/08 02:41:22;;;;;;;;;;;;;;;7.40;96.41;100097.84;5066404;28;20040;-28
2022/12/08 02:43:51;;;;;;;33.30;16.85;;;;;;;7.41;96.80;100072.94;5065410;28;19912;-30
2022/12/08 02:46:23;;;;;;;32.97;16.38;;;;;;;7.57;96.29;100082.41;5065507;28;20047;-30
2022/12/08 02:48:51;;;;;;;32.75;16.15;;;;;;;7.30;97.55;100079.66;5065693;28;20036;-29
2022/12/08 02:51:17;;;;;;;35.80;18.30;;;;;;;7.15;98.06;100052.41;5065505;28;20135;-27
2022/12/08 02:53:43;;;;;;;33.60;17.60;;;;;;;7.16;98.64;100076.09;5065618;28;20127;-31
2022/12/08 02:56:34;;;;;;;33.88;16.73;;;;;;;7.43;97.76;100089.50;5069255;28;20024;-30
2022/12/08 02:59:33;;;;;;;36.15;16.75;;;;;;;7.66;96.14;100102.44;5070839;28;20492;-28
2022/12/08 03:02:21;;;;;;;33.55;17.08;;;;;;;7.68;95.46;100076.50;5068957;28;20119;-29
2022/12/08 03:05:22;;;;;;;35.40;17.88;;;;;;;7.76;94.32;100086.94;5069357;28;20033;-29
2022/12/08 03:08:06;;;;;;;32.80;16.52;;;;;;;7.57;95.12;100101.78;5038720;28;20036;-33
2022/12/08 03:11:06;;;;;;;37.83;17.70;;;;;;;7.71;95.79;100104.50;5069038;28;20036;-28
2022/12/08 03:13:42;;;;;;;32.47;16.27;;;;;;;7.73;95.95;100089.19;5025200;28;20064;-32
2022/12/08 03:16:11;;;;;;;35.83;17.75;;;;;;;7.72;95.01;100108.78;5068859;28;20126;-29
2022/12/08 03:18:44;;;;;;;31.27;16.23;;;;;;;7.44;96.52;100115.03;5068599;28;20056;-35
2022/12/08 03:21:14;;;;;;;34.60;17.33;;;;;;;7.37;96.78;100103.53;5069031;28;20029;-28
2022/12/08 03:23:43;;;;;;;32.10;16.35;;;;;;;7.49;96.98;100117.06;5068292;28;20051;-30
2022/12/08 03:26:40;;;;;;;38.20;17.48;;;;;;;7.47;96.49;100109.31;5068619;28;20017;-31
2022/12/08 03:29:05;;;;;;;35.38;17.65;;;;;;;7.36;96.90;100104.56;5063429;28;20111;-30
2022/12/08 03:31:38;;;;;;;38.50;18.08;;;;;;;7.31;97.51;100099.03;5069868;28;20140;-29
2022/12/08 03:34:04;;;;;;;39.05;18.98;;;;;;;7.35;97.99;100106.38;5070053;28;20047;-29
2022/12/08 03:36:30;;;;;;;37.08;17.52;;;;;;;7.32;97.69;100109.44;5068645;28;20119;-31
2022/12/08 03:38:56;;;;;;;36.70;18.48;;;;;;;7.34;97.25;100093.34;5069806;28;20036;-29
2022/12/08 03:41:21;;;;;;;36.22;17.98;;;;;;;7.29;97.21;100096.56;5069791;28;20408;-29
2022/12/08 03:43:47;;;;;;;35.42;18.15;;;;;;;7.49;97.37;100109.91;5068018;28;20349;-32
2022/12/08 03:46:13;;;;;;;37.67;17.40;;;;;;;7.58;97.28;100108.75;5068469;28;20173;-29
2022/12/08 03:48:39;;;;;;;37.35;18.90;;;;;;;7.52;97.53;100100.75;5070369;28;20025;-29
2022/12/08 03:51:04;;;;;;;38.22;19.13;;;;;;;7.50;96.42;100093.00;5068327;28;20023;-28
2022/12/08 03:53:30;;;;;;;39.67;18.67;;;;;;;7.47;97.61;100109.31;5068168;28;20040;-34
2022/12/08 03:55:55;;;;;;;37.10;17.83;;;;;;;7.32;96.80;100060.88;5069310;28;20024;-28
2022/12/08 03:58:20;;;;;;;40.30;18.95;;;;;;;7.49;98.04;100075.44;5068445;28;20029;-29
2022/12/08 04:00:46;;;;;;;40.90;19.13;;;;;;;7.50;97.16;100066.47;5068164;28;20047;-28
2022/12/08 04:03:11;;;;;;;35.50;17.20;;;;;;;7.84;96.36;100089.41;5067931;28;20085;-29
2022/12/08 04:05:37;;;;;;;35.63;17.77;;;;;;;7.75;96.21;100069.41;5069518;28;20031;-31
2022/12/08 04:08:02;;;;;;;36.58;18.08;;;;;;;7.65;96.64;100080.38;5069297;28;20522;-29
2022/12/08 04:10:28;;;;;;;37.83;17.42;;;;;;;7.78;96.30;100100.84;5067727;28;20485;-29
2022/12/08 04:12:53;;;;;;;36.53;18.25;;;;;;;7.62;96.21;100095.88;5069422;28;20041;-33
2022/12/08 04:15:18;;;;;;;35.53;18.48;;;;;;;7.75;96.72;100111.06;5069445;28;20028;-32
2022/12/08 04:17:44;;;;;;;39.55;18.05;;;;;;;7.64;96.46;100099.16;5079557;28;20090;-31
2022/12/08 04:20:10;;;;;;;39.05;19.15;;;;;;;7.75;96.48;100108.41;5071228;28;20067;-29
2022/12/08 04:22:35;;;;;;;41.42;18.80;;;;;;;7.72;96.07;100082.25;5071022;28;20073;-30
2022/12/08 04:25:01;;;;;;;41.17;18.42;;;;;;;7.62;97.37;100112.66;5089084;28;20115;-31
2022/12/08 04:27:26;;;;;;;36.45;18.02;;;;;;;7.40;97.39;100089.91;5071165;28;20031;-28
2022/12/08 04:29:51;;;;;;;35.75;18.48;;;;;;;7.77;96.18;100087.78;5089241;28;20035;-31
2022/12/08 04:32:17;;;;;;;39.35;18.95;;;;;;;7.78;96.09;100103.50;5089609;28;20535;-28
2022/12/08 04:34:42;;;;;;;37.15;18.67;;;;;;;7.78;95.80;100105.34;5070616;28;20031;-29
2022/12/08 04:37:08;;;;;;;34.17;18.10;;;;;;;7.70;96.37;100106.31;5088886;28;20028;-34
2022/12/08 04:39:33;;;;;;;35.42;18.75;;;;;;;7.72;96.82;100117.56;5070371;28;20028;-29
2022/12/08 04:41:58;;;;;;;37.38;18.38;;;;;;;7.82;96.30;100122.50;5089170;28;20036;-35
2022/12/08 04:44:24;;;;;;;31.05;16.77;;;;;;;7.75;96.19;100121.69;5089201;28;20567;-35
2022/12/08 04:46:49;;;;;;;33.05;16.92;;;;;;;7.63;96.10;100097.53;5089077;28;20043;-32
2022/12/08 04:49:15;;;;;;;39.08;17.92;;;;;;;7.62;96.19;100102.03;5088451;28;20020;-33
2022/12/08 04:51:40;;;;;;;37.13;16.63;;;;;;;7.59;96.25;100098.94;5070254;28;20472;-28
2022/12/08 04:54:06;;;;;;;39.10;17.63;;;;;;;7.58;96.72;100098.13;5070178;28;20536;-31
2022/12/08 04:56:31;;;;;;;37.78;17.77;;;;;;;7.65;96.53;100100.81;5088302;28;20085;-29
2022/12/08 04:58:56;;;;;;;42.47;20.60;;;;;;;7.62;97.05;100112.66;5088942;28;20028;-29
2022/12/08 05:01:22;;;;;;;36.65;18.38;;;;;;;7.67;97.11;100112.03;5070059;28;20058;-28
2022/12/08 05:03:47;;;;;;;38.78;18.05;;;;;;;7.71;95.79;100109.81;5088200;28;20035;-28
2022/12/08 05:06:13;;;;;;;37.65;17.40;;;;;;;7.59;96.25;100113.03;5088464;28;20028;-32
2022/12/08 05:08:39;;;;;;;39.60;18.48;;;;;;;7.53;97.43;100113.00;5070000;28;20074;-36
2022/12/08 05:11:07;;;;;;;44.08;23.50;;;;;;;7.42;97.53;100106.44;5070300;28;20032;-31
2022/12/08 05:13:33;;;;;;;45.72;27.23;;;;;;;7.52;97.43;100129.94;5088219;28;20020;-27
2022/12/08 05:16:10;;;;;;;45.08;24.13;;;;;;;7.48;97.70;100123.38;5088148;28;20051;-30
2022/12/08 05:18:36;;;;;;;37.88;21.08;;;;;;;7.51;97.41;100118.50;5087459;28;20127;-30
2022/12/08 05:21:02;;;;;;;37.78;19.30;;;;;;;7.40;97.38;100111.94;5088229;28;20027;-32
2022/12/08 05:23:28;;;;;;;38.40;19.20;;;;;;;7.43;97.68;100126.63;5069459;28;20078;-28
2022/12/08 05:25:54;;;;;;;38.95;20.10;;;;;;;7.49;98.14;100123.19;5088045;28;20514;-29
2022/12/08 05:28:20;;;;;;;40.97;20.67;;;;;;;7.43;97.75;100113.38;5069967;28;20140;-28
2022/12/08 05:30:45;;;;;;;36.33;18.13;;;;;;;7.43;98.40;100119.47;5069784;28;20055;-31
2022/12/08 05:33:11;;;;;;;37.33;18.90;;;;;;;7.24;98.79;100094.50;5088208;28;20114;-34
2022/12/08 05:35:36;;;;;;;37.10;18.55;;;;;;;7.61;97.86;100131.41;5087899;28;20024;-29
2022/12/08 05:38:02;;;;;;;39.00;19.33;;;;;;;7.38;98.90;100113.16;5087577;28;20089;-31
2022/12/08 05:40:27;;;;;;;42.75;21.10;;;;;;;7.64;97.43;100110.63;5087780;28;20472;-29
2022/12/08 05:42:53;;;;;;;49.53;23.90;;;;;;;7.73;96.98;100134.34;5087693;28;20051;-29
2022/12/08 05:45:18;;;;;;;44.35;22.33;;;;;;;7.66;98.27;100131.63;5069286;28;20094;-29
2022/12/08 05:47:44;;;;;;;41.50;18.45;;;;;;;7.61;97.29;100121.59;5069173;28;20028;-28
2022/12/08 05:50:09;;;;;;;39.38;20.67;;;;;;;7.60;97.22;100127.09;5069077;28;20031;-30
2022/12/08 05:52:35;;;;;;;41.53;20.30;;;;;;;7.51;97.93;100131.78;5087504;28;20495;-32
2022/12/08 05:55:00;;;;;;;39.58;19.73;;;;;;;7.61;98.39;100153.47;5087935;28;20028;-28
2022/12/08 05:57:26;;;;;;;44.65;21.45;;;;;;;7.67;98.78;100164.31;5069238;28;20032;-33
2022/12/08 05:59:51;;;;;;;41.60;19.70;;;;;;;7.55;98.12;100142.81;5087190;28;20082;-29
2022/12/08 06:02:17;;;;;;;38.80;20.55;;;;;;;7.70;97.85;100171.88;5087225;28;20035;-27
2022/12/08 06:04:42;;;;;;;42.60;19.10;;;;;;;7.83;96.98;100171.94;5069160;28;20108;-30
2022/12/08 06:07:08;;;;;;;42.78;19.60;;;;;;;7.92;96.62;100169.94;5068919;28;20035;-30
2022/12/08 06:09:33;;;;;;;42.65;20.15;;;;;;;7.84;96.72;100168.25;5069360;28;20036;-28
2022/12/08 06:11:59;;;;;;;51.70;22.38;;;;;;;7.74;96.90;100146.56;5087027;28;20105;-28
2022/12/08 06:14:24;;;;;;;46.15;22.67;;;;;;;7.92;96.72;100172.59;5087780;28;20458;-28
2022/12/08 06:16:50;;;;;;;50.67;24.92;;;;;;;7.72;96.30;100159.22;5087188;28;20109;-31
2022/12/08 06:19:15;;;;;;;46.72;21.30;;;;;;;7.74;97.24;100178.44;5068908;28;20470;-30
2022/12/08 06:21:41;;;;;;;38.05;18.20;;;;;;;7.49;97.89;100165.66;5068670;28;20412;-29
2022/12/08 06:24:06;;;;;;;39.40;19.38;;;;;;;7.61;97.76;100190.63;5087606;28;20097;-28
2022/12/08 06:26:32;;;;;;;37.75;17.55;;;;;;;7.46;99.11;100181.97;5068818;28;20629;-34
2022/12/08 06:28:59;;;;;;;52.00;22.73;;;;;;;7.49;98.86;100173.59;5088019;28;20071;-29
2022/12/08 06:31:25;;;;;;;47.63;23.02;;;;;;;7.44;99.16;100178.69;5091709;28;20133;-28
2022/12/08 06:33:52;;;;;;;48.28;22.63;;;;;;;7.32;100.00;100161.69;5072900;28;20036;-30
2022/12/08 06:36:20;;;;;;;42.40;19.63;;;;;;;7.44;99.74;100186.66;5073017;28;20036;-31
2022/12/08 06:38:45;;;;;;;38.47;18.67;;;;;;;7.50;99.12;100191.19;5091256;28;20874;-30
2022/12/08 06:41:12;;;;;;;42.63;21.60;;;;;;;7.50;99.74;100198.31;5091170;28;20115;-33
2022/12/08 06:43:38;;;;;;;39.13;18.73;;;;;;;7.47;99.77;100188.91;5073308;28;20020;-28
2022/12/08 06:46:07;;;;;;;38.08;18.67;;;;;;;7.62;98.71;100186.97;5072955;28;20024;-31
2022/12/08 06:48:32;;;;;;;39.88;18.55;;;;;;;7.66;98.17;100171.44;5073003;28;20028;-31
2022/12/08 06:51:05;;;;;;;40.85;17.95;;;;;;;7.48;99.07;100195.88;5090847;28;20388;-32
2022/12/08 06:53:31;;;;;;;42.70;20.55;;;;;;;7.39;99.07;100175.81;5091409;28;20027;-29
2022/12/08 06:55:56;;;;;;;44.20;20.27;;;;;;;7.54;99.09;100200.41;5072665;28;20032;-28
2022/12/08 06:58:22;;;;;;;43.72;20.13;;;;;;;7.69;98.08;100191.47;5091171;28;20403;-31
2022/12/08 07:00:47;;;;;;;41.17;20.48;;;;;;;7.78;98.20;100204.38;5090992;28;20039;-29
2022/12/08 07:03:13;;;;;;;46.30;20.98;;;;;;;7.76;97.86;100200.28;5090892;28;20016;-30
2022/12/08 07:05:39;;;;;;;51.97;23.65;;;;;;;7.85;97.02;100191.16;5072294;28;20123;-33
2022/12/08 07:08:06;;;;;;;71.78;33.17;;;;;;;8.01;98.12;100212.06;5091001;28;20031;-31
2022/12/08 07:10:32;;;;;;;39.88;19.75;;;;;;;7.97;97.25;100210.81;5072595;28;20093;-30
2022/12/08 07:12:57;;;;;;;41.47;22.58;;;;;;;8.02;96.90;100211.03;5090829;28;20036;-34
2022/12/08 07:15:23;;;;;;;46.58;23.33;;;;;;;7.96;97.48;100216.31;5090811;28;20088;-33
2022/12/08 07:17:49;;;;;;;38.55;19.90;;;;;;;7.76;96.75;100197.63;5090130;28;20112;-28
2022/12/08 07:20:15;;;;;;;37.40;19.90;;;;;;;8.03;96.49;100215.34;5090700;28;20546;-28
2022/12/08 07:22:40;;;;;;;40.55;20.60;;;;;;;8.02;96.00;100211.03;5090844;28;20092;-28
2022/12/08 07:25:06;;;;;;;40.22;20.45;;;;;;;7.94;96.23;100200.56;5091053;28;20535;-32
2022/12/08 07:27:32;;;;;;;38.40;17.63;;;;;;;7.97;97.44;100216.13;5087571;28;20457;-34
2022/12/08 07:29:57;;;;;;;40.13;20.02;;;;;;;7.90;96.77;100203.81;5088914;28;20032;-29
2022/12/08 07:32:23;;;;;;;42.28;20.33;;;;;;;8.03;96.77;100218.00;5068563;28;20122;-33
2022/12/08 07:34:48;;;;;;;46.97;22.73;;;;;;;8.19;96.91;100223.94;5071477;28;20062;-31
2022/12/08 07:37:14;;;;;;;48.92;24.70;;;;;;;8.41;95.10;100206.06;5072049;28;20046;-30
2022/12/08 07:39:39;;;;;;;38.53;20.52;;;;;;;8.22;95.06;100223.56;5089198;28;20024;-31
2022/12/08 07:42:04;;;;;;;41.17;20.23;;;;;;;8.21;95.85;100220.09;5071813;28;20486;-32
2022/12/08 07:44:30;;;;;;;35.63;18.60;;;;;;;8.44;94.92;100232.25;5089661;28;20116;-29
2022/12/08 07:46:55;;;;;;;38.53;18.40;;;;;;;8.36;94.85;100214.63;5089683;28;20387;-31
2022/12/08 07:49:21;;;;;;;40.65;19.95;;;;;;;8.63;94.40;100235.97;5089909;28;20166;-28
2022/12/08 07:51:46;;;;;;;39.13;20.63;;;;;;;8.69;93.59;100234.34;5071293;28;20031;-31
2022/12/08 07:54:12;;;;;;;40.25;19.45;;;;;;;8.74;94.45;100234.53;5089637;28;20038;-28
2022/12/08 07:56:38;;;;;;;35.28;18.92;;;;;;;8.62;95.02;100247.59;5071339;28;20089;-28
2022/12/08 07:59:03;;;;;;;37.63;19.10;;;;;;;8.61;94.17;100225.53;5071236;28;20088;-28
2022/12/08 08:01:31;;;;;;;38.88;20.65;;;;;;;9.02;92.96;100255.66;5089383;28;20103;-30
2022/12/08 08:04:03;;;;;;;48.17;23.00;;;;;;;8.73;93.27;100251.53;5070999;28;20028;-35
2022/12/08 08:06:29;;;;;;;42.53;20.13;;;;;;;8.74;94.31;100250.50;5071305;28;20491;-29
2022/12/08 08:08:54;;;;;;;35.90;19.40;;;;;;;8.74;94.64;100238.03;5071177;28;20032;-29
2022/12/08 08:11:20;;;;;;;44.42;19.98;;;;;;;8.85;94.27;100261.38;5089477;28;20099;-33
2022/12/08 08:13:45;;;;;;;41.70;19.42;;;;;;;8.94;93.74;100264.63;5089035;28;20067;-30
2022/12/08 08:16:14;;;;;;;33.38;17.35;;;;;;;8.89;92.94;100260.94;5089407;28;20028;-31
2022/12/08 08:18:40;;;;;;;35.78;18.65;;;;;;;8.79;93.35;100246.22;5071148;28;20056;-30
2022/12/08 08:21:06;;;;;;;37.85;18.15;;;;;;;8.88;93.14;100254.00;5071209;28;20031;-31
2022/12/08 08:23:32;;;;;;;37.72;18.00;;;;;;;9.03;92.55;100262.59;5089415;28;20028;-28
2022/12/08 08:26:02;;;;;;;35.85;17.75;;;;;;;9.17;91.89;100248.28;5070466;28;20403;-29
2022/12/08 08:28:28;;;;;;;36.42;16.55;;;;;;;9.02;92.25;100213.09;5088919;28;20111;-31
2022/12/08 08:30:54;;;;;;;30.05;15.93;;;;;;;9.28;91.24;100248.72;5070686;28;20481;-31
2022/12/08 08:33:20;;;;;;;38.20;17.65;;;;;;;8.91;92.22;100251.75;5089533;28;20115;-33
2022/12/08 08:35:45;;;;;;;39.45;18.40;;;;;;;8.68;92.39;100212.25;5088700;28;20117;-28
2022/12/08 08:38:11;;;;;;;38.55;17.10;;;;;;;8.78;92.31;100243.75;5070699;28;20407;-35
2022/12/08 08:40:36;;;;;;;32.63;16.52;;;;;;;8.65;93.55;100229.41;5088623;28;20642;-28
2022/12/08 08:43:04;;;;;;;37.13;17.35;;;;;;;8.94;92.36;100226.59;5088872;28;20101;-28
2022/12/08 08:45:30;;;;;;;36.80;17.25;;;;;;;9.06;93.43;100230.28;5070212;28;20020;-29
2022/12/08 08:47:56;;;;;;;37.67;17.67;;;;;;;9.36;91.66;100237.84;5070414;28;20464;-31
2022/12/08 08:50:21;;;;;;;36.33;17.05;;;;;;;9.38;91.21;100241.94;5088622;28;20028;-29
2022/12/08 08:52:47;;;;;;;31.65;16.42;;;;;;;9.43;90.30;100231.47;5069786;28;20039;-30
2022/12/08 08:55:13;;;;;;;36.03;16.88;;;;;;;9.37;90.30;100234.97;5070123;28;20566;-31
2022/12/08 08:57:38;;;;;;;35.78;17.02;;;;;;;9.39;90.44;100242.75;5088338;28;20047;-29
2022/12/08 09:00:05;;;;;;;34.13;17.77;;;;;;;9.42;91.64;100234.38;5088268;28;20066;-34
2022/12/08 09:02:30;;;;;;;37.97;17.05;;;;;;;9.42;90.20;100223.72;5070002;28;20066;-33
2022/12/08 09:04:56;;;;;;;35.72;16.65;;;;;;;9.52;89.65;100210.78;5070281;28;20056;-34
2022/12/08 09:07:21;;;;;;;31.42;17.10;;;;;;;9.41;90.74;100219.41;5088394;28;20028;-29
2022/12/08 09:09:47;;;;;;;31.95;16.02;;;;;;;9.41;90.36;100204.25;5088141;28;20468;-34
2022/12/08 09:12:12;;;;;;;37.15;17.55;;;;;;;9.62;90.84;100224.50;5088261;28;20101;-28
2022/12/08 09:14:38;;;;;;;32.33;16.88;;;;;;;9.70;89.90;100222.63;5088049;28;20020;-30
2022/12/08 09:17:04;;;;;;;32.78;16.02;;;;;;;9.59;89.60;100208.91;5087743;28;20086;-28
2022/12/08 09:19:30;;;;;;;37.42;16.67;;;;;;;9.67;90.61;100217.72;5069926;28;20036;-29
2022/12/08 09:21:55;;;;;;;38.55;17.08;;;;;;;9.80;89.59;100207.00;5087992;28;20406;-28
2022/12/08 09:24:20;;;;;;;34.03;17.27;;;;;;;9.71;89.15;100202.97;5088020;28;20028;-28
2022/12/08 09:26:46;;;;;;;48.03;21.02;;;;;;;9.79;89.87;100218.72;5088285;28;20028;-33
2022/12/08 09:29:13;;;;;;;42.40;19.30;;;;;;;9.36;90.46;100201.41;5087889;28;20016;-29
2022/12/08 09:31:39;;;;;;;36.28;17.55;;;;;;;9.54;90.27;100200.75;5053105;28;20119;-33
2022/12/08 09:34:04;;;;;;;32.95;17.55;;;;;;;9.44;90.66;100190.53;5069396;28;20107;-29
2022/12/08 09:36:30;;;;;;;34.38;17.27;;;;;;;9.53;91.16;100199.09;5087695;28;20032;-32
2022/12/08 09:38:56;;;;;;;56.15;25.83;;;;;;;9.37;91.57;100178.25;5069285;28;20112;-32
2022/12/08 09:41:58;;;;;;;40.95;19.02;;;;;;;9.45;92.89;100207.31;5069417;28;20040;-33
2022/12/08 09:44:32;;;;;;;58.88;27.70;;;;;;;9.64;91.45;100206.47;5069435;28;20028;-28
2022/12/08 09:47:00;;;;;;;48.97;23.92;;;;;;;9.98;89.53;100207.16;5087715;28;20126;-28
2022/12/08 09:49:41;;;;;;;38.80;18.40;;;;;;;9.74;90.16;100199.88;5068894;28;20047;-30
2022/12/08 09:52:22;;;;;;;57.67;28.40;;;;;;;9.71;91.74;100197.63;5069161;28;20062;-30
2022/12/08 09:54:47;;;;;;;31.13;15.65;;;;;;;10.04;89.46;100195.66;5087952;28;20106;-30
2022/12/08 09:57:18;;;;;;;34.83;15.90;;;;;;;10.03;88.62;100183.38;5069384;28;20475;-30
2022/12/08 09:59:50;;;;;;;30.45;15.30;;;;;;;9.92;89.20;100168.03;5068945;28;20032;-28
2022/12/08 10:02:24;;;;;;;33.22;15.93;;;;;;;10.21;90.53;100190.63;5069392;28;20035;-31
2022/12/08 10:04:52;;;;;;;36.20;17.48;;;;;;;10.12;88.81;100177.78;5087558;28;20067;-29
2022/12/08 10:07:42;;;;;;;32.50;16.42;;;;;;;10.15;88.99;100196.81;5069177;28;20020;-29
2022/12/08 10:10:29;;;;;;;38.15;17.58;;;;;;;10.05;89.60;100175.97;5069356;28;20028;-29
2022/12/08 10:13:17;;;;;;;34.13;15.45;;;;;;;10.15;89.07;100177.34;5086888;28;20119;-29
2022/12/08 10:16:14;;;;;;;34.13;16.63;;;;;;;10.41;88.38;100174.56;5068559;28;20032;-32
2022/12/08 10:18:40;;;;;;;30.73;15.27;;;;;;;10.37;87.24;100149.38;5062626;28;20051;-32
2022/12/08 10:21:12;;;;;;;33.17;16.20;;;;;;;10.34;87.69;100173.81;5087425;28;20035;-29
2022/12/08 10:23:40;;;;;;;33.22;15.48;;;;;;;10.21;87.91;100163.16;5068840;28;20453;-39
2022/12/08 10:26:11;;;;;;;36.88;16.23;;;;;;;10.17;88.75;100135.31;5068865;28;20035;-28
2022/12/08 10:28:36;;;;;;;31.80;14.85;;;;;;;10.32;88.46;100146.53;5069099;28;20028;-28
2022/12/08 10:31:03;;;;;;;32.33;15.00;;;;;;;10.33;87.19;100145.50;5087100;28;20093;-30
2022/12/08 10:33:31;;;;;;;30.58;14.90;;;;;;;10.53;86.57;100144.56;5068977;28;20024;-28
2022/12/08 10:35:59;;;;;;;33.95;15.57;;;;;;;10.50;86.75;100139.63;5068356;28;20396;-31
2022/12/08 10:38:32;;;;;;;31.63;17.05;;;;;;;10.50;88.45;100150.31;5087226;28;20020;-28
2022/12/08 10:41:16;;;;;;;32.45;15.75;;;;;;;10.37;87.33;100149.38;5068799;28;20063;-30
2022/12/08 10:43:58;;;;;;;31.70;15.13;;;;;;;10.43;88.14;100145.03;5068481;28;20496;-29
2022/12/08 10:46:26;;;;;;;32.80;15.95;;;;;;;10.52;88.37;100133.09;5068602;28;20484;-28
2022/12/08 10:49:04;;;;;;;37.55;15.52;;;;;;;10.72;87.24;100135.56;5086965;28;20039;-31
2022/12/08 10:51:41;;;;;;;27.90;13.20;;;;;;;10.61;86.65;100133.63;5086934;28;20032;-28
2022/12/08 10:54:25;;;;;;;30.63;13.65;;;;;;;10.63;85.98;100139.56;5086940;28;20361;-28
2022/12/08 10:56:55;;;;;;;29.27;14.80;;;;;;;10.45;87.07;100117.09;5086659;28;20069;-31
2022/12/08 10:59:20;;;;;;;27.92;15.20;;;;;;;10.61;85.92;100130.97;5068729;28;20093;-28
2022/12/08 11:01:48;;;;;;;28.95;15.18;;;;;;;10.85;87.59;100127.47;5086550;28;20032;-31
2022/12/08 11:04:20;;;;;;;32.05;15.15;;;;;;;10.97;85.88;100127.56;5086828;28;20110;-31
2022/12/08 11:06:47;;;;;;;31.92;14.70;;;;;;;11.12;84.19;100111.19;5068253;28;20043;-31
2022/12/08 11:09:16;;;;;;;29.02;14.38;;;;;;;11.19;84.71;100127.94;5068359;28;20024;-32
2022/12/08 11:11:59;;;;;;;36.25;17.33;;;;;;;11.12;85.65;100126.41;5086481;28;20028;-31
2022/12/08 11:14:41;;;;;;;31.02;15.02;;;;;;;10.89;85.21;100105.66;5068593;28;20035;-30
2022/12/08 11:17:13;;;;;;;29.40;14.85;;;;;;;11.19;83.51;100111.94;5071783;28;20113;-29
2022/12/08 11:19:45;;;;;;;30.88;14.75;;;;;;;11.49;82.17;100103.19;5071648;28;20028;-34
2022/12/08 11:22:23;;;;;;;28.35;13.80;;;;;;;11.40;82.57;100101.84;5090400;28;20024;-29
2022/12/08 11:24:59;;;;;;;39.67;17.65;;;;;;;11.46;81.28;100100.94;5090137;28;20046;-33
2022/12/08 11:27:25;;;;;;;31.27;15.00;;;;;;;11.18;83.90;100094.28;5071658;28;20031;-32
2022/12/08 11:29:51;;;;;;;33.05;16.02;;;;;;;11.39;84.57;100071.66;5089751;28;20419;-31
2022/12/08 11:32:16;;;;;;;30.50;15.50;;;;;;;11.77;80.90;100088.44;5071185;28;20399;-28